Viterbo Airport LIRV

Flugplatz Daten

Name: Viterbo Airport

Ident: LIRV

Lat: 42,43019867

Long: 12,0642004

Platzhöhe: 992 ft

IataCode:

City: Viterbo

Metar

2021/12/03 17:55
LIRV 031755Z 02013KT CAVOK 06/02 Q1009

Taf

Gewünschte Webcam nicht vorhanden? Dann fügen Sie eine hinzu. Sie wird dann so schnell wie möglich freigeschaltet
Url: Title: